Terminal Aerodrome Forecast
Issued by NWS

Home | Current Version | Previous Version | Text Only | Print | Product List | Glossary On
Versions: 1 2 3 4 5 6 7 8 9 10 11
184
FTUS44 KBMX 271135
TAFEET
TAF
KEET 271135Z 2712/2812 19010KT P6SM BKN008 OVC012
     FM271700 24008KT P6SM BKN015
     FM272100 25009KT P6SM SKC
     FM280100 00000KT P6SM SKC
     FM280900 15005KT P6SM BKN050=

USA.gov is the U.S. government's official web portal to all federal, state and local government web resources and services.